sensor_id;sensor_type;location;lat;lon;timestamp;pressure;altitude;pressure_sealevel;temperature;humidity
13312;BME280;34033;48.672;9.376;2024-02-15T00:00:01;99014.53;;;11.04;88.43
13312;BME280;34033;48.672;9.376;2024-02-15T00:02:26;99008.56;;;11.06;88.27
13312;BME280;34033;48.672;9.376;2024-02-15T00:04:52;99010.19;;;11.07;88.46
13312;BME280;34033;48.672;9.376;2024-02-15T00:07:17;99011.00;;;11.07;88.37
13312;BME280;34033;48.672;9.376;2024-02-15T00:09:44;99012.97;;;11.07;88.33
13312;BME280;34033;48.672;9.376;2024-02-15T00:12:09;99013.38;;;11.09;88.88
13312;BME280;34033;48.672;9.376;2024-02-15T00:14:35;99012.97;;;11.07;89.18
13312;BME280;34033;48.672;9.376;2024-02-15T00:17:03;99010.59;;;11.09;88.77
13312;BME280;34033;48.672;9.376;2024-02-15T00:19:29;99007.78;;;11.09;88.64
13312;BME280;34033;48.672;9.376;2024-02-15T00:21:55;99014.97;;;11.06;88.40
13312;BME280;34033;48.672;9.376;2024-02-15T00:24:21;99018.16;;;11.08;88.21
13312;BME280;34033;48.672;9.376;2024-02-15T00:26:46;99014.53;;;11.04;88.48
13312;BME280;34033;48.672;9.376;2024-02-15T00:29:13;99009.31;;;11.03;88.95
13312;BME280;34033;48.672;9.376;2024-02-15T00:31:39;99014.06;;;10.99;88.84
13312;BME280;34033;48.672;9.376;2024-02-15T00:34:05;99022.03;;;10.97;88.68
13312;BME280;34033;48.672;9.376;2024-02-15T00:36:31;99022.03;;;10.97;89.30
13312;BME280;34033;48.672;9.376;2024-02-15T00:38:57;99027.63;;;10.97;89.24
13312;BME280;34033;48.672;9.376;2024-02-15T00:41:23;99024.84;;;10.97;89.53
13312;BME280;34033;48.672;9.376;2024-02-15T00:43:48;99028.03;;;10.99;89.33
13312;BME280;34033;48.672;9.376;2024-02-15T00:46:15;99025.25;;;10.99;89.34
13312;BME280;34033;48.672;9.376;2024-02-15T00:48:41;99009.28;;;10.99;89.13
13312;BME280;34033;48.672;9.376;2024-02-15T00:51:06;99016.84;;;10.99;89.21
13312;BME280;34033;48.672;9.376;2024-02-15T00:53:31;99012.44;;;10.98;89.16
13312;BME280;34033;48.672;9.376;2024-02-15T00:55:58;99009.22;;;10.96;88.77
13312;BME280;34033;48.672;9.376;2024-02-15T00:58:23;99012.44;;;10.98;88.87
13312;BME280;34033;48.672;9.376;2024-02-15T01:00:49;99004.03;;;10.98;88.94
13312;BME280;34033;48.672;9.376;2024-02-15T01:03:15;99008.91;;;11.01;89.02
13312;BME280;34033;48.672;9.376;2024-02-15T01:05:41;99000.06;;;10.99;89.03
13312;BME280;34033;48.672;9.376;2024-02-15T01:08:07;99000.84;;;10.96;88.86
13312;BME280;34033;48.672;9.376;2024-02-15T01:10:34;98993.19;;;10.93;88.95
13312;BME280;34033;48.672;9.376;2024-02-15T01:12:59;99003.53;;;10.88;89.49
13312;BME280;34033;48.672;9.376;2024-02-15T01:15:25;98998.72;;;10.85;89.47
13312;BME280;34033;48.672;9.376;2024-02-15T01:17:50;99001.19;;;10.91;89.66
13312;BME280;34033;48.672;9.376;2024-02-15T01:20:15;98993.97;;;10.90;89.28
13312;BME280;34033;48.672;9.376;2024-02-15T01:22:41;99001.19;;;10.91;89.07
13312;BME280;34033;48.672;9.376;2024-02-15T01:25:06;98998.28;;;10.83;89.08
13312;BME280;34033;48.672;9.376;2024-02-15T01:27:32;98988.16;;;10.75;88.68
13312;BME280;34033;48.672;9.376;2024-02-15T01:29:57;98991.25;;;10.67;89.23
13312;BME280;34033;48.672;9.376;2024-02-15T01:32:23;98991.94;;;10.60;89.79
13312;BME280;34033;48.672;9.376;2024-02-15T01:34:48;98991.09;;;10.56;89.64
13312;BME280;34033;48.672;9.376;2024-02-15T01:37:16;98985.47;;;10.53;89.53
13312;BME280;34033;48.672;9.376;2024-02-15T01:39:42;98985.41;;;10.49;90.13
13312;BME280;34033;48.672;9.376;2024-02-15T01:42:07;98988.16;;;10.45;90.18
13312;BME280;34033;48.672;9.376;2024-02-15T01:44:32;98986.84;;;10.39;90.71
13312;BME280;34033;48.672;9.376;2024-02-15T01:46:58;98984.81;;;10.36;90.49
13312;BME280;34033;48.672;9.376;2024-02-15T01:49:24;98984.00;;;10.36;90.73
13312;BME280;34033;48.672;9.376;2024-02-15T01:51:51;98979.59;;;10.35;91.20
13312;BME280;34033;48.672;9.376;2024-02-15T01:54:19;98981.59;;;10.34;91.19
13312;BME280;34033;48.672;9.376;2024-02-15T01:56:45;98985.56;;;10.33;91.24
13312;BME280;34033;48.672;9.376;2024-02-15T01:59:13;98979.66;;;10.38;91.35
13312;BME280;34033;48.672;9.376;2024-02-15T02:01:40;98991.59;;;10.35;91.39
13312;BME280;34033;48.672;9.376;2024-02-15T02:04:06;98983.56;;;10.34;91.51
13312;BME280;34033;48.672;9.376;2024-02-15T02:06:31;98981.22;;;10.36;90.97
13312;BME280;34033;48.672;9.376;2024-02-15T02:08:57;98981.47;;;10.27;91.55
13312;BME280;34033;48.672;9.376;2024-02-15T02:11:23;98977.97;;;10.34;90.99
13312;BME280;34033;48.672;9.376;2024-02-15T02:13:49;98981.75;;;10.19;91.60
13312;BME280;34033;48.672;9.376;2024-02-15T02:16:31;98987.75;;;10.21;91.53
13312;BME280;34033;48.672;9.376;2024-02-15T02:19:01;98988.19;;;10.23;90.95
13312;BME280;34033;48.672;9.376;2024-02-15T02:21:26;98997.81;;;10.25;90.45
13312;BME280;34033;48.672;9.376;2024-02-15T02:23:55;98997.41;;;10.27;90.37
13312;BME280;34033;48.672;9.376;2024-02-15T02:26:22;98991.84;;;10.27;90.11
13312;BME280;34033;48.672;9.376;2024-02-15T02:28:48;98997.00;;;10.25;90.01
13312;BME280;34033;48.672;9.376;2024-02-15T02:31:13;98992.97;;;10.22;89.79
13312;BME280;34033;48.672;9.376;2024-02-15T02:33:39;98994.91;;;10.18;89.06
13312;BME280;34033;48.672;9.376;2024-02-15T02:36:06;98991.59;;;10.13;88.73
13312;BME280;34033;48.672;9.376;2024-02-15T02:38:37;98995.13;;;10.10;88.11
13312;BME280;34033;48.672;9.376;2024-02-15T02:41:04;98992.28;;;10.06;88.59
13312;BME280;34033;48.672;9.376;2024-02-15T02:43:29;98993.81;;;10.03;88.58
13312;BME280;34033;48.672;9.376;2024-02-15T02:45:54;98985.75;;;9.98;87.99
13312;BME280;34033;48.672;9.376;2024-02-15T02:48:20;98990.84;;;9.93;88.69
13312;BME280;34033;48.672;9.376;2024-02-15T02:50:46;98991.28;;;9.72;90.40
13312;BME280;34033;48.672;9.376;2024-02-15T02:53:12;98995.00;;;9.80;90.22
13312;BME280;34033;48.672;9.376;2024-02-15T02:55:40;99000.16;;;9.78;89.65
13312;BME280;34033;48.672;9.376;2024-02-15T02:58:05;98993.03;;;9.80;89.61
13312;BME280;34033;48.672;9.376;2024-02-15T03:00:32;98999.34;;;9.77;89.43
13312;BME280;34033;48.672;9.376;2024-02-15T03:02:58;98983.75;;;9.76;88.91
13312;BME280;34033;48.672;9.376;2024-02-15T03:05:25;98992.09;;;9.73;88.80
13312;BME280;34033;48.672;9.376;2024-02-15T03:07:50;98991.22;;;9.69;89.34
13312;BME280;34033;48.672;9.376;2024-02-15T03:10:17;98986.31;;;9.62;88.82
13312;BME280;34033;48.672;9.376;2024-02-15T03:12:44;98992.66;;;9.59;89.32
13312;BME280;34033;48.672;9.376;2024-02-15T03:15:13;98985.38;;;9.54;88.66
13312;BME280;34033;48.672;9.376;2024-02-15T03:17:43;98988.03;;;9.47;88.33
13312;BME280;34033;48.672;9.376;2024-02-15T03:20:10;98991.91;;;9.43;88.31
13312;BME280;34033;48.672;9.376;2024-02-15T03:22:54;98990.88;;;9.51;88.67
13312;BME280;34033;48.672;9.376;2024-02-15T03:25:20;98989.13;;;9.43;88.62
13312;BME280;34033;48.672;9.376;2024-02-15T03:27:55;98985.06;;;9.37;88.20
13312;BME280;34033;48.672;9.376;2024-02-15T03:30:22;98984.91;;;9.30;88.00
13312;BME280;34033;48.672;9.376;2024-02-15T03:32:49;98980.78;;;9.24;87.62
13312;BME280;34033;48.672;9.376;2024-02-15T03:35:17;98987.91;;;9.21;87.52
13312;BME280;34033;48.672;9.376;2024-02-15T03:37:42;98989.00;;;9.16;87.62
13312;BME280;34033;48.672;9.376;2024-02-15T03:40:08;98999.75;;;9.14;88.22
13312;BME280;34033;48.672;9.376;2024-02-15T03:42:35;98990.94;;;9.12;87.79
13312;BME280;34033;48.672;9.376;2024-02-15T03:45:04;98996.06;;;9.10;87.42
13312;BME280;34033;48.672;9.376;2024-02-15T03:47:31;98994.03;;;9.07;87.08
13312;BME280;34033;48.672;9.376;2024-02-15T03:49:57;98996.75;;;9.04;86.82
13312;BME280;34033;48.672;9.376;2024-02-15T03:52:23;98997.16;;;9.06;86.37
13312;BME280;34033;48.672;9.376;2024-02-15T03:54:48;99003.03;;;8.82;88.09
13312;BME280;34033;48.672;9.376;2024-02-15T03:57:14;99001.78;;;8.79;88.78
13312;BME280;34033;48.672;9.376;2024-02-15T03:59:41;99004.72;;;8.86;89.58
13312;BME280;34033;48.672;9.376;2024-02-15T04:02:07;98996.66;;;8.81;89.07
13312;BME280;34033;48.672;9.376;2024-02-15T04:04:37;98998.53;;;8.77;88.28
13312;BME280;34033;48.672;9.376;2024-02-15T04:07:06;98999.63;;;8.72;87.70
13312;BME280;34033;48.672;9.376;2024-02-15T04:09:32;98991.56;;;8.67;87.11
13312;BME280;34033;48.672;9.376;2024-02-15T04:11:58;98995.91;;;8.65;87.00
13312;BME280;34033;48.672;9.376;2024-02-15T04:14:23;99007.00;;;8.81;93.93
13312;BME280;34033;48.672;9.376;2024-02-15T04:16:49;99007.66;;;8.74;88.92
13312;BME280;34033;48.672;9.376;2024-02-15T04:19:15;99017.28;;;8.76;87.18
13312;BME280;34033;48.672;9.376;2024-02-15T04:21:40;99016.06;;;8.77;85.71
13312;BME280;34033;48.672;9.376;2024-02-15T04:24:06;99018.81;;;8.93;86.38
13312;BME280;34033;48.672;9.376;2024-02-15T04:26:31;99014.72;;;9.06;85.34
13312;BME280;34033;48.672;9.376;2024-02-15T04:28:58;99011.78;;;9.18;84.71
13312;BME280;34033;48.672;9.376;2024-02-15T04:31:24;99011.94;;;9.26;83.95
13312;BME280;34033;48.672;9.376;2024-02-15T04:33:55;99007.28;;;9.33;83.79
13312;BME280;34033;48.672;9.376;2024-02-15T04:36:21;99008.97;;;9.38;82.11
13312;BME280;34033;48.672;9.376;2024-02-15T04:38:51;99013.47;;;9.42;82.90
13312;BME280;34033;48.672;9.376;2024-02-15T04:41:20;99014.34;;;9.46;82.94
13312;BME280;34033;48.672;9.376;2024-02-15T04:43:48;99012.41;;;9.50;82.97
13312;BME280;34033;48.672;9.376;2024-02-15T04:46:14;99005.28;;;9.53;82.97
13312;BME280;34033;48.672;9.376;2024-02-15T04:48:40;99009.31;;;9.55;82.05
13312;BME280;34033;48.672;9.376;2024-02-15T04:51:07;99012.88;;;9.75;84.66
13312;BME280;34033;48.672;9.376;2024-02-15T04:53:32;99012.31;;;9.89;84.46
13312;BME280;34033;48.672;9.376;2024-02-15T04:55:58;99003.13;;;9.88;81.79
13312;BME280;34033;48.672;9.376;2024-02-15T04:58:26;99001.09;;;9.85;81.13
13312;BME280;34033;48.672;9.376;2024-02-15T05:00:54;99003.03;;;9.81;80.43
13312;BME280;34033;48.672;9.376;2024-02-15T05:03:24;99007.84;;;9.84;80.25
13312;BME280;34033;48.672;9.376;2024-02-15T05:05:49;98994.94;;;9.76;80.81
13312;BME280;34033;48.672;9.376;2024-02-15T05:08:14;98992.03;;;9.69;81.11
13312;BME280;34033;48.672;9.376;2024-02-15T05:10:39;98996.31;;;9.63;81.63
13312;BME280;34033;48.672;9.376;2024-02-15T05:13:05;98987.06;;;9.59;81.72
13312;BME280;34033;48.672;9.376;2024-02-15T05:15:30;98983.88;;;9.60;81.52
13312;BME280;34033;48.672;9.376;2024-02-15T05:17:56;98988.66;;;9.60;81.70
13312;BME280;34033;48.672;9.376;2024-02-15T05:20:21;98990.22;;;9.57;81.07
13312;BME280;34033;48.672;9.376;2024-02-15T05:22:47;98994.44;;;9.48;81.29
13312;BME280;34033;48.672;9.376;2024-02-15T05:25:12;98990.19;;;9.35;81.61
13312;BME280;34033;48.672;9.376;2024-02-15T05:27:38;98980.66;;;9.36;82.56
13312;BME280;34033;48.672;9.376;2024-02-15T05:30:04;98992.22;;;9.38;82.55
13312;BME280;34033;48.672;9.376;2024-02-15T05:32:35;98994.19;;;9.37;82.88
13312;BME280;34033;48.672;9.376;2024-02-15T05:35:11;98989.00;;;9.36;83.20
13312;BME280;34033;48.672;9.376;2024-02-15T05:37:37;98992.91;;;9.31;84.16
13312;BME280;34033;48.672;9.376;2024-02-15T05:40:03;98982.94;;;9.30;84.49
13312;BME280;34033;48.672;9.376;2024-02-15T05:42:30;98988.56;;;9.34;84.45
13312;BME280;34033;48.672;9.376;2024-02-15T05:44:55;98981.06;;;9.38;84.60
13312;BME280;34033;48.672;9.376;2024-02-15T05:47:20;98977.53;;;9.41;84.42
13312;BME280;34033;48.672;9.376;2024-02-15T05:49:46;98982.00;;;9.45;84.15
13312;BME280;34033;48.672;9.376;2024-02-15T05:52:12;98978.06;;;9.46;84.02
13312;BME280;34033;48.672;9.376;2024-02-15T05:54:38;98986.47;;;9.50;83.83
13312;BME280;34033;48.672;9.376;2024-02-15T05:57:04;98976.94;;;9.51;83.22
13312;BME280;34033;48.672;9.376;2024-02-15T05:59:30;98981.34;;;9.52;83.30
13312;BME280;34033;48.672;9.376;2024-02-15T06:01:55;98986.13;;;9.51;82.67
13312;BME280;34033;48.672;9.376;2024-02-15T06:04:21;98983.69;;;9.50;82.78
13312;BME280;34033;48.672;9.376;2024-02-15T06:06:48;98992.44;;;9.48;82.72
13312;BME280;34033;48.672;9.376;2024-02-15T06:09:15;98990.03;;;9.47;82.50
13312;BME280;34033;48.672;9.376;2024-02-15T06:11:41;98990.63;;;9.37;83.01
13312;BME280;34033;48.672;9.376;2024-02-15T06:14:06;98985.72;;;9.30;83.49
13312;BME280;34033;48.672;9.376;2024-02-15T06:16:32;99001.19;;;9.28;83.40
13312;BME280;34033;48.672;9.376;2024-02-15T06:18:57;98997.16;;;9.06;84.28
13312;BME280;34033;48.672;9.376;2024-02-15T06:21:22;98994.47;;;9.09;84.88
13312;BME280;34033;48.672;9.376;2024-02-15T06:23:49;98995.72;;;8.93;85.02
13312;BME280;34033;48.672;9.376;2024-02-15T06:26:16;98988.72;;;8.83;85.95
13312;BME280;34033;48.672;9.376;2024-02-15T06:28:42;99000.69;;;8.84;86.16
13312;BME280;34033;48.672;9.376;2024-02-15T06:31:25;98987.25;;;8.89;86.51
13312;BME280;34033;48.672;9.376;2024-02-15T06:34:09;98989.03;;;8.97;86.68
13312;BME280;34033;48.672;9.376;2024-02-15T06:36:56;98989.97;;;9.05;86.11
13312;BME280;34033;48.672;9.376;2024-02-15T06:39:40;98988.16;;;9.12;86.37
13312;BME280;34033;48.672;9.376;2024-02-15T06:42:11;99000.25;;;9.20;85.46
13312;BME280;34033;48.672;9.376;2024-02-15T06:44:37;98997.19;;;9.25;85.63
13312;BME280;34033;48.672;9.376;2024-02-15T06:47:05;98996.78;;;9.27;84.98
13312;BME280;34033;48.672;9.376;2024-02-15T06:49:31;98994.44;;;9.29;84.30
13312;BME280;34033;48.672;9.376;2024-02-15T06:51:58;98996.94;;;9.34;84.62
13312;BME280;34033;48.672;9.376;2024-02-15T06:54:24;98991.13;;;9.42;84.53
13312;BME280;34033;48.672;9.376;2024-02-15T06:56:49;98991.66;;;9.48;83.47
13312;BME280;34033;48.672;9.376;2024-02-15T06:59:17;98985.06;;;9.59;83.11
13312;BME280;34033;48.672;9.376;2024-02-15T07:01:43;98985.38;;;9.54;83.14
13312;BME280;34033;48.672;9.376;2024-02-15T07:04:10;98976.94;;;9.51;83.73
13312;BME280;34033;48.672;9.376;2024-02-15T07:06:36;98983.69;;;9.50;83.62
13312;BME280;34033;48.672;9.376;2024-02-15T07:09:05;98983.69;;;9.50;83.90
13312;BME280;34033;48.672;9.376;2024-02-15T07:11:32;98986.84;;;9.48;83.35
13312;BME280;34033;48.672;9.376;2024-02-15T07:13:59;98980.91;;;9.50;83.56
13312;BME280;34033;48.672;9.376;2024-02-15T07:16:24;98994.13;;;9.53;83.59
13312;BME280;34033;48.672;9.376;2024-02-15T07:18:50;98987.28;;;9.50;83.15
13312;BME280;34033;48.672;9.376;2024-02-15T07:21:15;98988.16;;;9.54;83.44
13312;BME280;34033;48.672;9.376;2024-02-15T07:23:42;98985.88;;;9.60;83.62
13312;BME280;34033;48.672;9.376;2024-02-15T07:26:07;98992.34;;;9.64;83.19
13312;BME280;34033;48.672;9.376;2024-02-15T07:28:33;98987.25;;;9.70;82.89
13312;BME280;34033;48.672;9.376;2024-02-15T07:30:58;98988.94;;;9.74;82.99
13312;BME280;34033;48.672;9.376;2024-02-15T07:33:25;98986.69;;;9.83;81.93
13312;BME280;34033;48.672;9.376;2024-02-15T07:35:50;98994.75;;;9.88;82.27
13312;BME280;34033;48.672;9.376;2024-02-15T07:38:17;98993.22;;;9.91;82.13
13312;BME280;34033;48.672;9.376;2024-02-15T07:40:42;98982.84;;;9.91;82.77
13312;BME280;34033;48.672;9.376;2024-02-15T07:43:09;98978.84;;;9.92;82.71
13312;BME280;34033;48.672;9.376;2024-02-15T07:45:35;98983.41;;;10.00;83.06
13312;BME280;34033;48.672;9.376;2024-02-15T07:48:03;98979.56;;;10.09;83.26
13312;BME280;34033;48.672;9.376;2024-02-15T07:50:30;98974.53;;;10.18;82.69
13312;BME280;34033;48.672;9.376;2024-02-15T07:52:55;98969.06;;;10.25;82.32
13312;BME280;34033;48.672;9.376;2024-02-15T07:55:21;98971.53;;;10.30;82.39
13312;BME280;34033;48.672;9.376;2024-02-15T07:57:46;98966.91;;;10.41;81.72
13312;BME280;34033;48.672;9.376;2024-02-15T08:00:13;98965.34;;;10.43;81.56
13312;BME280;34033;48.672;9.376;2024-02-15T08:02:44;98956.69;;;10.52;81.68
13312;BME280;34033;48.672;9.376;2024-02-15T08:05:10;98946.38;;;10.56;81.55
13312;BME280;34033;48.672;9.376;2024-02-15T08:07:43;98942.06;;;10.62;81.84
13312;BME280;34033;48.672;9.376;2024-02-15T08:10:12;98941.72;;;10.67;81.68
13312;BME280;34033;48.672;9.376;2024-02-15T08:12:41;98931.75;;;10.70;81.40
13312;BME280;34033;48.672;9.376;2024-02-15T08:15:08;98929.88;;;10.77;81.91
13312;BME280;34033;48.672;9.376;2024-02-15T08:17:38;98930.81;;;10.88;81.70
13312;BME280;34033;48.672;9.376;2024-02-15T08:20:06;98921.41;;;11.04;81.61
13312;BME280;34033;48.672;9.376;2024-02-15T08:22:33;98933.13;;;11.13;81.45
13312;BME280;34033;48.672;9.376;2024-02-15T08:24:58;98916.00;;;11.21;81.56
13312;BME280;34033;48.672;9.376;2024-02-15T08:27:24;98917.72;;;11.33;80.51
13312;BME280;34033;48.672;9.376;2024-02-15T08:29:49;98915.84;;;11.44;80.14
13312;BME280;34033;48.672;9.376;2024-02-15T08:32:15;98911.53;;;11.54;79.24
13312;BME280;34033;48.672;9.376;2024-02-15T08:34:40;98903.59;;;11.59;79.19
13312;BME280;34033;48.672;9.376;2024-02-15T08:37:05;98892.47;;;11.66;79.40
13312;BME280;34033;48.672;9.376;2024-02-15T08:39:32;98891.34;;;11.75;78.62
13312;BME280;34033;48.672;9.376;2024-02-15T08:41:57;98887.00;;;11.81;77.82
13312;BME280;34033;48.672;9.376;2024-02-15T08:44:24;98885.88;;;11.89;78.75
13312;BME280;34033;48.672;9.376;2024-02-15T08:46:50;98871.50;;;11.97;77.87
13312;BME280;34033;48.672;9.376;2024-02-15T08:49:15;98868.03;;;12.15;76.91
13312;BME280;34033;48.672;9.376;2024-02-15T08:51:40;98866.91;;;12.30;76.60
13312;BME280;34033;48.672;9.376;2024-02-15T08:54:06;98878.63;;;12.46;75.87
13312;BME280;34033;48.672;9.376;2024-02-15T08:56:31;98870.63;;;12.51;75.33
13312;BME280;34033;48.672;9.376;2024-02-15T08:58:58;98869.91;;;12.62;75.77
13312;BME280;34033;48.672;9.376;2024-02-15T09:01:24;98869.13;;;12.65;75.09
13312;BME280;34033;48.672;9.376;2024-02-15T09:03:50;98867.13;;;12.65;75.62
13312;BME280;34033;48.672;9.376;2024-02-15T09:06:15;98859.94;;;12.68;75.13
13312;BME280;34033;48.672;9.376;2024-02-15T09:08:41;98859.53;;;12.73;73.92
13312;BME280;34033;48.672;9.376;2024-02-15T09:11:06;98856.31;;;12.74;74.31
13312;BME280;34033;48.672;9.376;2024-02-15T09:13:31;98855.50;;;12.74;74.92
13312;BME280;34033;48.672;9.376;2024-02-15T09:15:58;98860.75;;;12.75;75.42
13312;BME280;34033;48.672;9.376;2024-02-15T09:18:24;98854.75;;;12.80;75.42
13312;BME280;34033;48.672;9.376;2024-02-15T09:20:49;98855.56;;;12.81;73.71
13312;BME280;34033;48.672;9.376;2024-02-15T09:23:20;98849.97;;;12.88;74.45
13312;BME280;34033;48.672;9.376;2024-02-15T09:25:46;98839.53;;;12.78;74.48
13312;BME280;34033;48.672;9.376;2024-02-15T09:28:15;98839.53;;;12.81;74.86
13312;BME280;34033;48.672;9.376;2024-02-15T09:30:40;98842.34;;;12.92;74.25
13312;BME280;34033;48.672;9.376;2024-02-15T09:33:05;98839.97;;;13.01;74.47
13312;BME280;34033;48.672;9.376;2024-02-15T09:35:31;98840.41;;;13.10;74.45
13312;BME280;34033;48.672;9.376;2024-02-15T09:37:57;98837.22;;;13.19;74.14
13312;BME280;34033;48.672;9.376;2024-02-15T09:40:22;98837.25;;;13.22;73.65
13312;BME280;34033;48.672;9.376;2024-02-15T09:42:51;98836.84;;;13.34;72.31
13312;BME280;34033;48.672;9.376;2024-02-15T09:45:17;98835.69;;;13.39;72.03
13312;BME280;34033;48.672;9.376;2024-02-15T09:47:46;98827.66;;;13.48;71.73
13312;BME280;34033;48.672;9.376;2024-02-15T09:50:16;98837.28;;;13.58;71.19
13312;BME280;34033;48.672;9.376;2024-02-15T09:52:50;98825.22;;;13.68;71.43
13312;BME280;34033;48.672;9.376;2024-02-15T09:55:22;98819.22;;;13.76;70.62
13312;BME280;34033;48.672;9.376;2024-02-15T09:57:49;98812.00;;;13.83;70.08
13312;BME280;34033;48.672;9.376;2024-02-15T10:00:15;98819.22;;;13.87;69.84
13312;BME280;34033;48.672;9.376;2024-02-15T10:02:42;98815.59;;;13.87;69.06
13312;BME280;34033;48.672;9.376;2024-02-15T10:05:10;98820.44;;;13.72;70.30
13312;BME280;34033;48.672;9.376;2024-02-15T10:07:41;98811.19;;;13.64;71.29
13312;BME280;34033;48.672;9.376;2024-02-15T10:10:17;98810.00;;;13.65;71.06
13312;BME280;34033;48.672;9.376;2024-02-15T10:12:44;98813.59;;;13.73;70.73
13312;BME280;34033;48.672;9.376;2024-02-15T10:15:09;98810.00;;;13.83;70.45
13312;BME280;34033;48.672;9.376;2024-02-15T10:17:35;98805.97;;;13.81;70.83
13312;BME280;34033;48.672;9.376;2024-02-15T10:20:05;98806.75;;;13.85;70.92
13312;BME280;34033;48.672;9.376;2024-02-15T10:22:30;98796.72;;;13.87;70.58
13312;BME280;34033;48.672;9.376;2024-02-15T10:25:12;98793.88;;;14.01;70.40
13312;BME280;34033;48.672;9.376;2024-02-15T10:27:39;98794.66;;;14.19;69.85
13312;BME280;34033;48.672;9.376;2024-02-15T10:30:19;98793.03;;;14.26;69.11
13312;BME280;34033;48.672;9.376;2024-02-15T10:32:45;98778.53;;;14.31;68.34
13312;BME280;34033;48.672;9.376;2024-02-15T10:35:19;98780.56;;;14.37;68.25
13312;BME280;34033;48.672;9.376;2024-02-15T10:37:46;98774.91;;;14.48;67.38
13312;BME280;34033;48.672;9.376;2024-02-15T10:40:12;98766.44;;;14.55;66.25
13312;BME280;34033;48.672;9.376;2024-02-15T10:42:40;98762.31;;;14.67;66.05
13312;BME280;34033;48.672;9.376;2024-02-15T10:45:11;98761.47;;;14.80;65.61
13312;BME280;34033;48.672;9.376;2024-02-15T10:47:37;98758.56;;;14.91;65.13
13312;BME280;34033;48.672;9.376;2024-02-15T10:50:06;98762.16;;;14.98;64.40
13312;BME280;34033;48.672;9.376;2024-02-15T10:52:32;98757.19;;;15.17;63.39
13312;BME280;34033;48.672;9.376;2024-02-15T10:55:03;98748.66;;;15.31;62.86
13312;BME280;34033;48.672;9.376;2024-02-15T10:57:31;98744.03;;;15.51;63.20
13312;BME280;34033;48.672;9.376;2024-02-15T10:59:58;98741.19;;;15.58;62.32
13312;BME280;34033;48.672;9.376;2024-02-15T11:02:34;98742.78;;;15.59;62.03
13312;BME280;34033;48.672;9.376;2024-02-15T11:05:11;98733.03;;;15.67;61.97
13312;BME280;34033;48.672;9.376;2024-02-15T11:07:39;98732.13;;;15.77;60.96
13312;BME280;34033;48.672;9.376;2024-02-15T11:10:06;98732.00;;;15.92;60.13
13312;BME280;34033;48.672;9.376;2024-02-15T11:12:33;98721.94;;;15.91;59.25
13312;BME280;34033;48.672;9.376;2024-02-15T11:14:59;98725.09;;;15.96;59.37
13312;BME280;34033;48.672;9.376;2024-02-15T11:20:05;98721.69;;;16.12;58.72
13312;BME280;34033;48.672;9.376;2024-02-15T11:22:34;98713.97;;;16.16;58.84
13312;BME280;34033;48.672;9.376;2024-02-15T11:25:04;98717.09;;;16.25;58.48
13312;BME280;34033;48.672;9.376;2024-02-15T11:27:35;98712.41;;;16.45;58.00
13312;BME280;34033;48.672;9.376;2024-02-15T11:30:03;98708.97;;;16.64;56.90
13312;BME280;34033;48.672;9.376;2024-02-15T11:35:09;98698.19;;;16.83;56.20
13312;BME280;34033;48.672;9.376;2024-02-15T11:42:42;98685.72;;;17.07;55.23
13312;BME280;34033;48.672;9.376;2024-02-15T11:45:08;98680.50;;;17.05;54.98
13312;BME280;34033;48.672;9.376;2024-02-15T11:47:37;98684.84;;;17.10;55.16
13312;BME280;34033;48.672;9.376;2024-02-15T11:50:02;98681.00;;;17.24;54.40
13312;BME280;34033;48.672;9.376;2024-02-15T11:52:28;98668.66;;;17.37;54.85
13312;BME280;34033;48.672;9.376;2024-02-15T11:54:54;98679.41;;;17.46;52.85
13312;BME280;34033;48.672;9.376;2024-02-15T11:57:19;98667.84;;;17.60;53.38
13312;BME280;34033;48.672;9.376;2024-02-15T12:00:01;98672.59;;;17.67;52.89
13312;BME280;34033;48.672;9.376;2024-02-15T12:02:53;98669.19;;;17.75;52.81
13312;BME280;34033;48.672;9.376;2024-02-15T12:05:37;98666.66;;;17.81;52.59
13312;BME280;34033;48.672;9.376;2024-02-15T12:08:22;98674.84;;;17.75;52.37
13312;BME280;34033;48.672;9.376;2024-02-15T12:11:06;98663.81;;;17.81;52.54
13312;BME280;34033;48.672;9.376;2024-02-15T12:13:51;98666.31;;;17.79;52.43
13312;BME280;34033;48.672;9.376;2024-02-15T12:16:35;98668.03;;;17.73;52.41
13312;BME280;34033;48.672;9.376;2024-02-15T12:19:19;98664.19;;;17.83;52.06
13312;BME280;34033;48.672;9.376;2024-02-15T12:21:47;98659.22;;;17.90;51.92
13312;BME280;34033;48.672;9.376;2024-02-15T12:24:13;98653.38;;;17.98;52.02
13312;BME280;34033;48.672;9.376;2024-02-15T12:26:39;98648.41;;;18.05;51.41
13312;BME280;34033;48.672;9.376;2024-02-15T12:29:07;98652.75;;;18.10;51.13
13312;BME280;34033;48.672;9.376;2024-02-15T12:31:35;98643.31;;;18.16;50.83
13312;BME280;34033;48.672;9.376;2024-02-15T12:34:05;98627.78;;;18.24;50.28
13312;BME280;34033;48.672;9.376;2024-02-15T12:36:34;98632.97;;;18.46;50.53
13312;BME280;34033;48.672;9.376;2024-02-15T12:39:10;98625.06;;;18.57;50.03
13312;BME280;34033;48.672;9.376;2024-02-15T12:41:50;98621.97;;;18.67;50.15
13312;BME280;34033;48.672;9.376;2024-02-15T12:44:18;98608.09;;;18.73;49.91
13312;BME280;34033;48.672;9.376;2024-02-15T12:46:54;98604.63;;;18.82;49.67
13312;BME280;34033;48.672;9.376;2024-02-15T12:51:50;98595.88;;;18.92;49.64
13312;BME280;34033;48.672;9.376;2024-02-15T12:54:22;98592.88;;;18.99;49.08
13312;BME280;34033;48.672;9.376;2024-02-15T12:56:48;98589.31;;;19.11;48.71
13312;BME280;34033;48.672;9.376;2024-02-15T12:59:14;98584.97;;;19.23;48.82
13312;BME280;34033;48.672;9.376;2024-02-15T13:01:39;98584.50;;;19.25;48.42
13312;BME280;34033;48.672;9.376;2024-02-15T13:04:05;98579.63;;;19.25;48.53
13312;BME280;34033;48.672;9.376;2024-02-15T13:06:31;98572.03;;;19.22;48.28
13312;BME280;34033;48.672;9.376;2024-02-15T13:09:00;98571.97;;;19.09;48.32
13312;BME280;34033;48.672;9.376;2024-02-15T13:11:25;98564.63;;;18.96;48.64
13312;BME280;34033;48.672;9.376;2024-02-15T13:13:51;98561.97;;;19.05;48.88
13312;BME280;34033;48.672;9.376;2024-02-15T13:16:17;98565.75;;;19.14;48.50
13312;BME280;34033;48.672;9.376;2024-02-15T13:18:45;98559.94;;;18.89;48.43